sensor_id;sensor_type;location;lat;lon;timestamp;P1;durP1;ratioP1;P2;durP2;ratioP2
54167;SDS011;68429;50.958;3.592;2023-04-06T00:01:39;32.53;;;18.73;;
54167;SDS011;68429;50.958;3.592;2023-04-06T00:04:05;29.15;;;18.17;;
54167;SDS011;68429;50.958;3.592;2023-04-06T00:06:31;28.30;;;19.77;;
54167;SDS011;68429;50.958;3.592;2023-04-06T00:08:57;26.75;;;19.50;;
54167;SDS011;68429;50.958;3.592;2023-04-06T00:11:24;30.38;;;21.52;;
54167;SDS011;68429;50.958;3.592;2023-04-06T00:13:50;27.17;;;21.35;;
54167;SDS011;68429;50.958;3.592;2023-04-06T00:16:16;32.75;;;22.90;;
54167;SDS011;68429;50.958;3.592;2023-04-06T00:18:42;30.75;;;23.85;;
54167;SDS011;68429;50.958;3.592;2023-04-06T00:21:11;28.65;;;21.60;;
54167;SDS011;68429;50.958;3.592;2023-04-06T00:23:38;30.95;;;21.83;;
54167;SDS011;68429;50.958;3.592;2023-04-06T00:26:04;41.80;;;23.48;;
54167;SDS011;68429;50.958;3.592;2023-04-06T00:28:30;40.28;;;23.50;;
54167;SDS011;68429;50.958;3.592;2023-04-06T00:30:56;32.97;;;24.10;;
54167;SDS011;68429;50.958;3.592;2023-04-06T00:33:21;33.28;;;24.13;;
54167;SDS011;68429;50.958;3.592;2023-04-06T00:35:48;28.90;;;21.73;;
54167;SDS011;68429;50.958;3.592;2023-04-06T00:38:14;40.38;;;25.10;;
54167;SDS011;68429;50.958;3.592;2023-04-06T00:40:40;36.17;;;25.35;;
54167;SDS011;68429;50.958;3.592;2023-04-06T00:43:07;35.40;;;24.15;;
54167;SDS011;68429;50.958;3.592;2023-04-06T00:45:34;34.20;;;25.40;;
54167;SDS011;68429;50.958;3.592;2023-04-06T00:48:00;36.05;;;26.42;;
54167;SDS011;68429;50.958;3.592;2023-04-06T00:50:26;36.25;;;25.63;;
54167;SDS011;68429;50.958;3.592;2023-04-06T00:52:53;37.30;;;26.05;;
54167;SDS011;68429;50.958;3.592;2023-04-06T00:55:19;38.38;;;26.98;;
54167;SDS011;68429;50.958;3.592;2023-04-06T00:57:45;37.08;;;26.52;;
54167;SDS011;68429;50.958;3.592;2023-04-06T01:00:12;42.72;;;26.63;;
54167;SDS011;68429;50.958;3.592;2023-04-06T01:02:38;34.45;;;25.77;;
54167;SDS011;68429;50.958;3.592;2023-04-06T01:05:04;39.92;;;28.20;;
54167;SDS011;68429;50.958;3.592;2023-04-06T01:07:30;40.13;;;27.45;;
54167;SDS011;68429;50.958;3.592;2023-04-06T01:09:56;42.15;;;26.42;;
54167;SDS011;68429;50.958;3.592;2023-04-06T01:12:23;42.65;;;28.00;;
54167;SDS011;68429;50.958;3.592;2023-04-06T01:14:49;42.67;;;27.83;;
54167;SDS011;68429;50.958;3.592;2023-04-06T01:17:15;48.38;;;27.85;;
54167;SDS011;68429;50.958;3.592;2023-04-06T01:19:40;41.30;;;27.70;;
54167;SDS011;68429;50.958;3.592;2023-04-06T01:22:06;39.38;;;27.33;;
54167;SDS011;68429;50.958;3.592;2023-04-06T01:24:32;39.28;;;27.33;;
54167;SDS011;68429;50.958;3.592;2023-04-06T01:26:58;40.55;;;28.33;;
54167;SDS011;68429;50.958;3.592;2023-04-06T01:29:24;43.50;;;29.95;;
54167;SDS011;68429;50.958;3.592;2023-04-06T01:31:49;38.78;;;27.90;;
54167;SDS011;68429;50.958;3.592;2023-04-06T01:34:15;43.70;;;27.73;;
54167;SDS011;68429;50.958;3.592;2023-04-06T01:36:41;42.05;;;28.00;;
54167;SDS011;68429;50.958;3.592;2023-04-06T01:39:07;42.83;;;28.67;;
54167;SDS011;68429;50.958;3.592;2023-04-06T01:41:33;41.55;;;28.85;;
54167;SDS011;68429;50.958;3.592;2023-04-06T01:43:59;38.10;;;26.98;;
54167;SDS011;68429;50.958;3.592;2023-04-06T01:46:25;38.70;;;28.00;;
54167;SDS011;68429;50.958;3.592;2023-04-06T01:48:51;41.60;;;27.98;;
54167;SDS011;68429;50.958;3.592;2023-04-06T01:51:17;54.25;;;30.85;;
54167;SDS011;68429;50.958;3.592;2023-04-06T01:53:42;41.95;;;26.98;;
54167;SDS011;68429;50.958;3.592;2023-04-06T01:56:08;45.38;;;29.92;;
54167;SDS011;68429;50.958;3.592;2023-04-06T01:58:34;45.50;;;29.08;;
54167;SDS011;68429;50.958;3.592;2023-04-06T02:01:00;46.25;;;29.58;;
54167;SDS011;68429;50.958;3.592;2023-04-06T02:03:26;41.22;;;27.63;;
54167;SDS011;68429;50.958;3.592;2023-04-06T02:05:51;40.20;;;27.10;;
54167;SDS011;68429;50.958;3.592;2023-04-06T02:08:17;44.45;;;29.33;;
54167;SDS011;68429;50.958;3.592;2023-04-06T02:10:42;37.08;;;28.25;;
54167;SDS011;68429;50.958;3.592;2023-04-06T02:13:08;42.60;;;27.63;;
54167;SDS011;68429;50.958;3.592;2023-04-06T02:15:34;40.97;;;28.10;;
54167;SDS011;68429;50.958;3.592;2023-04-06T02:17:59;40.55;;;28.30;;
54167;SDS011;68429;50.958;3.592;2023-04-06T02:20:25;42.65;;;27.73;;
54167;SDS011;68429;50.958;3.592;2023-04-06T02:22:51;46.63;;;29.33;;
54167;SDS011;68429;50.958;3.592;2023-04-06T02:25:17;40.63;;;28.80;;
54167;SDS011;68429;50.958;3.592;2023-04-06T02:27:42;37.60;;;28.15;;
54167;SDS011;68429;50.958;3.592;2023-04-06T02:30:08;48.20;;;27.77;;
54167;SDS011;68429;50.958;3.592;2023-04-06T02:32:34;41.78;;;28.50;;
54167;SDS011;68429;50.958;3.592;2023-04-06T02:35:00;43.05;;;27.58;;
54167;SDS011;68429;50.958;3.592;2023-04-06T02:37:26;45.33;;;28.35;;
54167;SDS011;68429;50.958;3.592;2023-04-06T02:39:51;38.70;;;26.88;;
54167;SDS011;68429;50.958;3.592;2023-04-06T02:42:17;40.80;;;28.10;;
54167;SDS011;68429;50.958;3.592;2023-04-06T02:44:43;42.53;;;27.65;;
54167;SDS011;68429;50.958;3.592;2023-04-06T02:47:08;41.83;;;28.05;;
54167;SDS011;68429;50.958;3.592;2023-04-06T02:49:34;48.63;;;29.85;;
54167;SDS011;68429;50.958;3.592;2023-04-06T02:52:00;41.42;;;26.83;;
54167;SDS011;68429;50.958;3.592;2023-04-06T02:54:26;51.67;;;29.48;;
54167;SDS011;68429;50.958;3.592;2023-04-06T02:56:52;47.13;;;28.27;;
54167;SDS011;68429;50.958;3.592;2023-04-06T02:59:18;42.65;;;28.00;;
54167;SDS011;68429;50.958;3.592;2023-04-06T03:01:43;46.65;;;27.98;;
54167;SDS011;68429;50.958;3.592;2023-04-06T03:04:09;45.10;;;27.45;;
54167;SDS011;68429;50.958;3.592;2023-04-06T03:06:35;40.65;;;26.73;;
54167;SDS011;68429;50.958;3.592;2023-04-06T03:09:01;39.50;;;25.42;;
54167;SDS011;68429;50.958;3.592;2023-04-06T03:11:27;40.42;;;25.35;;
54167;SDS011;68429;50.958;3.592;2023-04-06T03:13:53;43.67;;;25.70;;
54167;SDS011;68429;50.958;3.592;2023-04-06T03:16:18;39.92;;;25.98;;
54167;SDS011;68429;50.958;3.592;2023-04-06T03:18:44;41.25;;;25.40;;
54167;SDS011;68429;50.958;3.592;2023-04-06T03:21:11;45.65;;;25.15;;
54167;SDS011;68429;50.958;3.592;2023-04-06T03:23:40;43.20;;;25.63;;
54167;SDS011;68429;50.958;3.592;2023-04-06T03:26:05;41.13;;;25.33;;
54167;SDS011;68429;50.958;3.592;2023-04-06T03:28:31;33.97;;;23.45;;
54167;SDS011;68429;50.958;3.592;2023-04-06T03:30:57;37.00;;;22.77;;
54167;SDS011;68429;50.958;3.592;2023-04-06T03:33:23;32.88;;;21.63;;
54167;SDS011;68429;50.958;3.592;2023-04-06T03:35:48;34.85;;;22.70;;
54167;SDS011;68429;50.958;3.592;2023-04-06T03:38:14;38.45;;;24.00;;
54167;SDS011;68429;50.958;3.592;2023-04-06T03:40:40;36.30;;;23.30;;
54167;SDS011;68429;50.958;3.592;2023-04-06T03:43:05;35.90;;;22.15;;
54167;SDS011;68429;50.958;3.592;2023-04-06T03:45:31;36.45;;;23.45;;
54167;SDS011;68429;50.958;3.592;2023-04-06T03:47:57;37.17;;;22.55;;
54167;SDS011;68429;50.958;3.592;2023-04-06T03:50:22;36.50;;;21.77;;
54167;SDS011;68429;50.958;3.592;2023-04-06T03:52:48;35.08;;;21.67;;
54167;SDS011;68429;50.958;3.592;2023-04-06T03:55:14;37.35;;;21.48;;
54167;SDS011;68429;50.958;3.592;2023-04-06T03:57:39;35.35;;;20.67;;
54167;SDS011;68429;50.958;3.592;2023-04-06T04:00:05;32.03;;;20.65;;
54167;SDS011;68429;50.958;3.592;2023-04-06T04:02:31;37.80;;;21.67;;
54167;SDS011;68429;50.958;3.592;2023-04-06T04:04:57;33.03;;;20.75;;
54167;SDS011;68429;50.958;3.592;2023-04-06T04:07:23;30.63;;;20.38;;
54167;SDS011;68429;50.958;3.592;2023-04-06T04:09:48;31.88;;;19.48;;
54167;SDS011;68429;50.958;3.592;2023-04-06T04:12:14;29.02;;;20.08;;
54167;SDS011;68429;50.958;3.592;2023-04-06T04:14:41;36.28;;;20.65;;
54167;SDS011;68429;50.958;3.592;2023-04-06T04:17:07;31.75;;;20.15;;
54167;SDS011;68429;50.958;3.592;2023-04-06T04:19:33;28.27;;;18.20;;
54167;SDS011;68429;50.958;3.592;2023-04-06T04:21:59;30.52;;;20.48;;
54167;SDS011;68429;50.958;3.592;2023-04-06T04:24:24;28.92;;;19.90;;
54167;SDS011;68429;50.958;3.592;2023-04-06T04:26:51;33.53;;;19.92;;
54167;SDS011;68429;50.958;3.592;2023-04-06T04:29:16;29.00;;;18.83;;
54167;SDS011;68429;50.958;3.592;2023-04-06T04:31:46;26.95;;;18.98;;
54167;SDS011;68429;50.958;3.592;2023-04-06T04:34:11;33.40;;;18.77;;
54167;SDS011;68429;50.958;3.592;2023-04-06T04:36:37;29.35;;;18.73;;
54167;SDS011;68429;50.958;3.592;2023-04-06T04:39:03;31.02;;;19.85;;
54167;SDS011;68429;50.958;3.592;2023-04-06T04:41:28;34.80;;;20.98;;
54167;SDS011;68429;50.958;3.592;2023-04-06T04:43:54;46.95;;;22.90;;
54167;SDS011;68429;50.958;3.592;2023-04-06T04:46:20;38.75;;;21.83;;
54167;SDS011;68429;50.958;3.592;2023-04-06T04:48:45;39.50;;;21.20;;
54167;SDS011;68429;50.958;3.592;2023-04-06T04:51:11;36.78;;;22.40;;
54167;SDS011;68429;50.958;3.592;2023-04-06T04:53:37;37.72;;;22.70;;
54167;SDS011;68429;50.958;3.592;2023-04-06T04:56:02;41.50;;;22.65;;
54167;SDS011;68429;50.958;3.592;2023-04-06T04:58:28;36.50;;;23.77;;
54167;SDS011;68429;50.958;3.592;2023-04-06T05:00:54;34.47;;;23.48;;
54167;SDS011;68429;50.958;3.592;2023-04-06T05:03:23;42.75;;;23.45;;
54167;SDS011;68429;50.958;3.592;2023-04-06T05:05:50;39.22;;;24.63;;
54167;SDS011;68429;50.958;3.592;2023-04-06T05:08:16;37.92;;;24.38;;
54167;SDS011;68429;50.958;3.592;2023-04-06T05:10:42;34.20;;;21.67;;
54167;SDS011;68429;50.958;3.592;2023-04-06T05:13:09;31.30;;;22.30;;
54167;SDS011;68429;50.958;3.592;2023-04-06T05:15:35;34.03;;;23.27;;
